sim
Sign-in with your pilot id or email,
or register
Callsign
Passwort

Schedule Details

Flight Number: OEO3639
Departure: Tunis Carthage International Airport (DTTA) at 07:25
Arrival: Munich Airport (EDDM) at 09:40

Weather Information
Getting current METAR information for DTTA 211730Z 04003KT 010V090 9999 FEW020 SCT024TCU FEW030CB 26/19 Q1015
Getting current METAR information for EDDM 211750Z VRB01KT CAVOK 16/13 Q1015 NOSIG

Schedule Frequency

Route Map